createdAt,value
2019-03-30T00:04:25.090Z,102458.82
2019-03-30T00:10:58.872Z,102443.95
2019-03-30T00:16:07.060Z,102446.48
2019-03-30T00:21:15.121Z,102445.23
2019-03-30T00:26:23.272Z,102434.55
2019-03-30T00:31:31.284Z,102434.38
2019-03-30T00:36:38.914Z,102432.30
2019-03-30T00:41:47.212Z,102421.09
2019-03-30T00:46:55.262Z,102424.83
2019-03-30T00:55:40.679Z,102421.62
2019-03-30T01:00:48.698Z,102424.38
2019-03-30T01:05:58.251Z,102406.20
2019-03-30T01:11:06.261Z,102406.20
2019-03-30T01:16:13.010Z,102399.98
2019-03-30T01:21:21.057Z,102399.25
2019-03-30T01:26:29.038Z,102392.21
2019-03-30T01:31:37.108Z,102403.96
2019-03-30T01:36:45.614Z,102397.53
2019-03-30T01:41:53.641Z,102395.52
2019-03-30T01:47:01.546Z,102378.95
2019-03-30T01:52:09.347Z,102378.95
2019-03-30T01:57:15.985Z,102394.72
2019-03-30T02:02:24.064Z,102397.68
2019-03-30T02:07:31.931Z,102392.63
2019-03-30T02:12:40.937Z,102390.00
2019-03-30T02:17:49.669Z,102387.88
2019-03-30T02:22:57.441Z,102383.38
2019-03-30T02:28:06.874Z,102383.38
2019-03-30T02:37:32.687Z,102373.98
2019-03-30T02:42:40.450Z,102368.58
2019-03-30T02:47:48.066Z,102368.58
2019-03-30T02:52:56.088Z,102373.16
2019-03-30T02:58:04.081Z,102366.70
2019-03-30T03:05:22.381Z,102362.53
2019-03-30T03:10:30.284Z,102357.97
2019-03-30T03:15:40.053Z,102354.19
2019-03-30T03:21:06.140Z,102343.81
2019-03-30T03:25:58.051Z,102342.37
2019-03-30T03:31:07.136Z,102338.36
2019-03-30T03:36:15.064Z,102343.12
2019-03-30T03:41:23.071Z,102344.39
2019-03-30T03:46:31.241Z,102335.88
2019-03-30T03:51:39.580Z,102319.18
2019-03-30T03:56:49.636Z,102318.63
2019-03-30T04:01:57.114Z,102312.81
2019-03-30T04:07:05.078Z,102312.81
2019-03-30T04:12:15.070Z,102306.44
2019-03-30T04:17:23.268Z,102308.64
2019-03-30T04:22:31.057Z,102314.38
2019-03-30T04:27:37.577Z,102306.34
2019-03-30T04:32:45.502Z,102302.33
2019-03-30T04:37:52.261Z,102296.42
2019-03-30T04:43:00.143Z,102300.45
2019-03-30T04:48:08.228Z,102299.73
2019-03-30T04:53:16.256Z,102293.17
2019-03-30T04:58:24.268Z,102280.62
2019-03-30T05:03:32.250Z,102280.62
2019-03-30T05:08:40.270Z,102291.20
2019-03-30T05:13:48.157Z,102282.55
2019-03-30T05:18:56.019Z,102276.59
2019-03-30T05:24:04.126Z,102273.94
2019-03-30T05:29:12.061Z,102278.06
2019-03-30T05:34:19.923Z,102284.71
2019-03-30T05:39:27.897Z,102281.78
2019-03-30T05:44:35.836Z,102259.47
2019-03-30T05:49:44.029Z,102259.47
2019-03-30T05:54:51.896Z,102279.17
2019-03-30T05:59:59.927Z,102276.61
2019-03-30T06:05:08.421Z,102279.98
2019-03-30T06:10:16.419Z,102276.84
2019-03-30T06:15:24.066Z,102273.69
2019-03-30T06:20:31.924Z,102266.83
2019-03-30T06:25:40.049Z,102262.92
2019-03-30T06:30:48.072Z,102252.30
2019-03-30T06:35:55.887Z,102258.53
2019-03-30T06:41:03.921Z,102257.37
2019-03-30T06:46:10.518Z,102249.70
2019-03-30T06:51:19.097Z,102243.98
2019-03-30T06:56:27.233Z,102237.20
2019-03-30T07:01:35.250Z,102239.89
2019-03-30T07:06:43.649Z,102225.02
2019-03-30T07:11:54.089Z,102228.62
2019-03-30T07:17:02.485Z,102228.62
2019-03-30T07:22:10.238Z,102228.78
2019-03-30T07:27:16.848Z,102226.85
2019-03-30T07:32:25.400Z,102228.23
2019-03-30T07:37:31.980Z,102229.28
2019-03-30T07:42:39.747Z,102232.03
2019-03-30T07:47:47.914Z,102230.77
2019-03-30T07:52:56.904Z,102229.27
2019-03-30T07:58:05.269Z,102227.48
2019-03-30T08:03:13.242Z,102222.86
2019-03-30T08:08:21.053Z,102220.19
2019-03-30T08:13:28.904Z,102213.72
2019-03-30T08:18:36.731Z,102209.59
2019-03-30T08:23:44.881Z,102207.74
2019-03-30T08:28:53.226Z,102206.75
2019-03-30T08:34:01.245Z,102199.94
2019-03-30T08:39:10.108Z,102197.83
2019-03-30T08:44:16.493Z,102197.31
2019-03-30T08:49:24.410Z,102193.36
2019-03-30T08:54:32.500Z,102188.81
2019-03-30T08:59:40.524Z,102177.46
2019-03-30T09:04:48.540Z,102179.50
2019-03-30T09:09:56.649Z,102165.30
2019-03-30T09:15:04.844Z,102151.48
2019-03-30T09:20:11.633Z,102151.48
2019-03-30T09:25:19.617Z,102130.16
2019-03-30T09:30:27.835Z,102130.16
2019-03-30T09:35:35.639Z,102113.66
2019-03-30T09:40:42.303Z,102110.44
2019-03-30T09:45:50.046Z,102110.44
2019-03-30T09:50:58.051Z,102101.89
2019-03-30T09:56:04.494Z,102098.42
2019-03-30T10:01:12.430Z,102089.58
2019-03-30T10:12:08.761Z,102084.72
2019-03-30T10:20:59.684Z,102076.87
2019-03-30T10:26:06.260Z,102062.06
2019-03-30T10:35:07.042Z,102048.25
2019-03-30T10:40:15.588Z,102040.75
2019-03-30T10:45:23.607Z,102018.11
2019-03-30T10:50:31.457Z,102006.18
2019-03-30T10:55:39.247Z,102006.18
2019-03-30T11:01:11.075Z,102015.67
2019-03-30T11:06:18.660Z,102004.22
2019-03-30T11:11:26.471Z,101988.95
2019-03-30T11:16:34.288Z,101990.69
2019-03-30T11:23:26.639Z,101983.21
2019-03-30T11:28:34.583Z,101972.90
2019-03-30T11:38:03.681Z,101968.66
2019-03-30T11:43:11.608Z,101937.73
2019-03-30T11:48:19.650Z,101940.47
2019-03-30T11:53:27.579Z,101922.92
2019-03-30T11:59:35.612Z,101919.94
2019-03-30T12:04:43.591Z,101919.94
2019-03-30T12:09:51.558Z,101896.02
2019-03-30T12:14:59.474Z,101883.00
2019-03-30T12:24:51.653Z,101878.28
2019-03-30T12:38:30.666Z,101825.73
2019-03-30T12:43:39.180Z,101825.73
2019-03-30T12:53:33.636Z,101821.88
2019-03-30T12:58:41.588Z,101822.48
2019-03-30T13:03:49.477Z,101813.69
2019-03-30T13:08:57.253Z,101813.69
2019-03-30T13:14:03.650Z,101806.53
2019-03-30T13:19:11.656Z,101797.20
2019-03-30T13:24:18.275Z,101778.09
2019-03-30T13:29:25.921Z,101778.09
2019-03-30T13:34:34.608Z,101774.08
2019-03-30T13:39:42.614Z,101766.89
2019-03-30T13:44:49.263Z,101758.66
2019-03-30T13:49:57.036Z,101758.66
2019-03-30T13:55:06.124Z,101761.91
2019-03-30T14:01:34.171Z,101741.39
2019-03-30T14:07:36.064Z,101737.14
2019-03-30T14:12:44.046Z,101735.95
2019-03-30T14:20:56.644Z,101732.45
2019-03-30T14:26:31.276Z,101715.89
2019-03-30T14:34:19.647Z,101724.27
2019-03-30T14:48:40.852Z,101695.50
2019-03-30T14:53:48.667Z,101695.50
2019-03-30T14:59:09.446Z,101669.42
2019-03-30T15:04:06.067Z,101669.42
2019-03-30T15:11:38.678Z,101661.31
2019-03-30T15:16:46.634Z,101640.56
2019-03-30T15:21:54.417Z,101635.36
2019-03-30T15:32:18.914Z,101628.57
2019-03-30T15:38:45.646Z,101628.14
2019-03-30T15:43:52.341Z,101614.30
2019-03-30T15:52:24.674Z,101617.98
2019-03-30T15:57:33.893Z,101606.83
2019-03-30T16:02:41.857Z,101606.83
2019-03-30T16:11:26.682Z,101596.36
2019-03-30T16:16:34.578Z,101606.09
2019-03-30T16:21:42.432Z,101602.16
2019-03-30T16:26:50.263Z,101589.86
2019-03-30T16:31:58.088Z,101589.86
2019-03-30T16:48:55.892Z,101588.20
2019-03-30T16:54:03.733Z,101589.80
2019-03-30T16:59:13.671Z,101581.92
2019-03-30T17:04:20.094Z,101588.80
2019-03-30T17:09:26.498Z,101586.88
2019-03-30T17:14:34.242Z,101589.31
2019-03-30T17:27:57.566Z,101582.73
2019-03-30T17:37:25.733Z,101579.69
2019-03-30T17:42:33.647Z,101588.48
2019-03-30T17:47:41.583Z,101586.59
2019-03-30T17:52:49.621Z,101597.49
2019-03-30T17:58:11.974Z,101594.03
2019-03-30T18:03:05.661Z,101594.03
2019-03-30T18:08:13.428Z,101590.53
2019-03-30T18:13:22.228Z,101590.53
2019-03-30T18:18:30.046Z,101599.28
2019-03-30T18:26:43.667Z,101598.22
2019-03-30T18:31:52.024Z,101595.20
2019-03-30T18:38:15.763Z,101592.97
2019-03-30T18:43:23.699Z,101601.36
2019-03-30T18:48:30.266Z,101599.08
2019-03-30T18:53:38.595Z,101599.08
2019-03-30T18:58:45.261Z,101606.25
2019-03-30T19:09:10.260Z,101610.21
2019-03-30T19:14:16.615Z,101606.73
2019-03-30T19:20:54.647Z,101604.52
2019-03-30T19:26:02.574Z,101611.69
2019-03-30T19:36:27.956Z,101608.22
2019-03-30T19:41:35.859Z,101608.35
2019-03-30T19:46:43.698Z,101603.19
2019-03-30T19:51:51.583Z,101602.84
2019-03-30T19:56:59.414Z,101593.81
2019-03-30T20:02:07.390Z,101593.81
2019-03-30T20:15:28.751Z,101593.30
2019-03-30T20:25:25.808Z,101591.54
2019-03-30T20:30:30.829Z,101585.73
2019-03-30T20:35:38.627Z,101573.81
2019-03-30T20:40:46.583Z,101571.97
2019-03-30T20:45:54.502Z,101571.97
2019-03-30T20:56:00.672Z,101570.34
2019-03-30T21:04:57.893Z,101562.22
2019-03-30T21:10:06.636Z,101576.67
2019-03-30T21:15:14.662Z,101571.75
2019-03-30T21:22:26.676Z,101563.70
2019-03-30T21:29:54.408Z,101556.76
2019-03-30T21:34:55.121Z,101551.50
2019-03-30T21:40:01.680Z,101545.97
2019-03-30T21:45:10.730Z,101558.50
2019-03-30T21:50:17.333Z,101554.05
2019-03-30T21:55:23.835Z,101554.05
2019-03-30T22:00:39.605Z,101561.00
2019-03-30T22:11:55.843Z,101555.73
2019-03-30T22:17:03.678Z,101555.20
2019-03-30T22:22:11.586Z,101560.78
2019-03-30T22:27:19.534Z,101562.44
2019-03-30T22:37:48.252Z,101551.59
2019-03-30T22:46:07.919Z,101551.57
2019-03-30T22:52:12.072Z,101549.08
2019-03-30T23:01:11.572Z,101549.63
2019-03-30T23:06:21.079Z,101545.19
2019-03-30T23:11:29.088Z,101543.78
2019-03-30T23:24:00.919Z,101548.47
2019-03-30T23:29:07.513Z,101553.42
2019-03-30T23:34:15.290Z,101540.05
2019-03-30T23:39:21.674Z,101541.98
2019-03-30T23:44:29.622Z,101537.45
2019-03-30T23:51:39.727Z,101536.59
2019-03-30T23:56:47.583Z,101538.23
